LCPH/PFO METAR and TAF weather

Enter ICAO airport designator
Station Type Date Time Source
LCPH METAR 2018/12/11 23:30 UTC NOAA

LCPH 112330Z 26019KT 9999 FEW025TCU BKN050 19/12 Q1013


Station Type Date Time Source
LCPH Decoded METAR 2018/12/11 23:30 UTC NOAA

Paphos Airport, Cyprus (LCPH) 34-43N 032-29E 8M
Dec 11, 2018 - 06:30 PM EST / 2018.12.11 2330 UTC
Wind: from the W (260 degrees) at 22 MPH (19 KT):0
Visibility: greater than 7 mile(s):0
Sky conditions: mostly cloudy
Weather: Towering cumulus clouds observed
Temperature: 66 F (19 C)
Dew Point: 53 F (12 C)
Relative Humidity: 63%
Pressure (altimeter): 29.91 in. Hg (1013 hPa)
ob: LCPH 112330Z 26019KT 9999 FEW025TCU BKN050 19/12 Q1013
cycle: 23

Station Type Date Time Source
LCPH TAF 2018/12/11 18:30 UTC NOAA

TAF LCPH 111730Z 1118/1218 25026G36KT 9999 SCT020 SCT050 PROB30
TEMPO 1118/1206 VRB30G40KT 2000 TSRA SCT020CB


Example: see airport list